Nearby METAR Reports

 

KSDF - Louisville, Kentucky, USA
Distance from station: NNW 19mi, 31km
Updated: Sun, 20-Oct-2019 10:56pm EDT
Clear
Clear
 Wind from SE
Wind: SE 7 mph , 11 km/h
Temperature: 63°F , 17°C
Dew Point: 55°F , 13°C
Humidity: 77%
Barometer: 29.94 inHg , 1013.9 hPa
Clouds: Clear
Visibility: 10 miles , 16 km
2019/10/21 02:56 KSDF 210256Z 14006KT 10SM CLR 17/13 A2994 RMK AO2 SLP135 T01720128 51009
KLOU - Louisville/Bowmn, Kentucky, USA
Distance from station: NNW 20mi, 33km
Updated: Sun, 20-Oct-2019 10:53pm EDT
Clear
Clear
 Wind from SE
Wind: SE 5 mph , 7 km/h
Temperature: 63°F , 17°C
Dew Point: 54°F , 12°C
Humidity: 73%
Barometer: 29.94 inHg , 1013.9 hPa
Clouds: Clear
Visibility: 10 miles , 16 km
2019/10/21 02:53 KLOU 210253Z AUTO 14004KT 10SM CLR 17/12 A2994 RMK AO2 SLP136 T01720122 51010
 
KFTK - Fort Knox/Godman, Kentucky, USA
Distance from station: W 21mi, 33km
Updated: Sun, 20-Oct-2019 10:56pm EDT
Clear
Clear
 Wind from calm
Wind: Calm
Temperature: 59°F , 15°C
Dew Point: 55°F , 13°C
Humidity: 88%
Barometer: 29.94 inHg , 1013.9 hPa
Clouds: Clear
Visibility: 10 miles , 16 km
2019/10/21 02:56 KFTK 210256Z AUTO 00000KT 10SM CLR 15/13 A2994 RMK AO2 SLP139 T01460128 50007 $
KEKX - Elizabeth, Kentucky, USA
Distance from station: SW 21mi, 34km
Updated: Sun, 20-Oct-2019 11:15pm EDT
Clear
Clear
 Wind from calm
Wind: Calm
Temperature: 55°F , 13°C
Dew Point: 55°F , 13°C
Humidity: 100%
Barometer: 29.95 inHg , 1014.2 hPa
Clouds: Clear
Visibility: 10 miles , 16 km
2019/10/21 03:15 KEKX 210315Z AUTO 00000KT 10SM CLR 13/13 A2995 RMK AO2 T01340130
 
K6I2 - Springfield, Kentucky, USA
Distance from station: SE 28mi, 44km
Updated: Sun, 20-Oct-2019 10:55pm EDT

 Wind from calm
Wind: Calm
Temperature: 57°F , 14°C
Dew Point: 57°F , 14°C
Humidity: 100%
Barometer: 29.97 inHg , 1014.9 hPa
2019/10/21 02:55 K6I2 210255Z AUTO 00000KT 14/14 A2997 RMK AO2
KFFT - Frankfort, Kentucky, USA
Distance from station: ENE 42mi, 67km
Updated: Sun, 20-Oct-2019 10:53pm EDT
Mostly cloudy
Mostly cloudy
 Wind from SSE
Wind: SSE 6 mph , 9 km/h
Temperature: 61°F , 16°C
Dew Point: 57°F , 14°C
Humidity: 88%
Barometer: 29.96 inHg , 1014.6 hPa
Clouds: Mostly cloudy
Visibility: 10 miles , 16 km
Cloud details: Mostly cloudy 7000 ft
2019/10/21 02:53 KFFT 210253Z AUTO 15005KT 10SM BKN070 16/14 A2996 RMK AO2 SLP143 T01560139 52015